sensor_id;sensor_type;location;lat;lon;timestamp;temperature;humidity
56725;DHT22;42608;52.776;6.968;2023-12-14T00:00:17;4.90;99.90
56725;DHT22;42608;52.776;6.968;2023-12-14T00:02:43;4.90;99.90
56725;DHT22;42608;52.776;6.968;2023-12-14T00:05:09;4.90;99.90
56725;DHT22;42608;52.776;6.968;2023-12-14T00:07:34;4.90;99.90
56725;DHT22;42608;52.776;6.968;2023-12-14T00:10:00;4.90;99.90
56725;DHT22;42608;52.776;6.968;2023-12-14T00:12:25;4.90;99.90
56725;DHT22;42608;52.776;6.968;2023-12-14T00:14:51;4.90;99.90
56725;DHT22;42608;52.776;6.968;2023-12-14T00:17:17;4.90;99.90
56725;DHT22;42608;52.776;6.968;2023-12-14T00:19:42;4.90;99.90
56725;DHT22;42608;52.776;6.968;2023-12-14T00:22:08;4.90;99.90
56725;DHT22;42608;52.776;6.968;2023-12-14T00:24:34;4.90;99.90
56725;DHT22;42608;52.776;6.968;2023-12-14T00:26:59;5.00;99.90
56725;DHT22;42608;52.776;6.968;2023-12-14T00:29:25;4.90;99.90
56725;DHT22;42608;52.776;6.968;2023-12-14T00:31:50;4.90;99.90
56725;DHT22;42608;52.776;6.968;2023-12-14T00:34:16;4.90;99.90
56725;DHT22;42608;52.776;6.968;2023-12-14T00:36:41;4.90;99.90
56725;DHT22;42608;52.776;6.968;2023-12-14T00:39:08;4.90;99.90
56725;DHT22;42608;52.776;6.968;2023-12-14T00:41:34;4.90;99.90
56725;DHT22;42608;52.776;6.968;2023-12-14T00:44:00;5.00;99.90
56725;DHT22;42608;52.776;6.968;2023-12-14T00:46:25;4.90;99.90
56725;DHT22;42608;52.776;6.968;2023-12-14T00:48:51;4.90;99.90
56725;DHT22;42608;52.776;6.968;2023-12-14T00:51:16;4.90;99.90
56725;DHT22;42608;52.776;6.968;2023-12-14T00:53:42;4.80;99.90
56725;DHT22;42608;52.776;6.968;2023-12-14T00:56:08;4.80;99.90
56725;DHT22;42608;52.776;6.968;2023-12-14T00:58:34;4.90;99.90
56725;DHT22;42608;52.776;6.968;2023-12-14T01:00:59;4.90;99.90
56725;DHT22;42608;52.776;6.968;2023-12-14T01:03:25;4.80;99.90
56725;DHT22;42608;52.776;6.968;2023-12-14T01:05:50;4.80;99.90
56725;DHT22;42608;52.776;6.968;2023-12-14T01:08:16;4.90;99.90
56725;DHT22;42608;52.776;6.968;2023-12-14T01:10:42;4.80;99.90
56725;DHT22;42608;52.776;6.968;2023-12-14T01:13:07;4.90;99.90
56725;DHT22;42608;52.776;6.968;2023-12-14T01:15:33;4.90;99.90
56725;DHT22;42608;52.776;6.968;2023-12-14T01:17:58;4.90;99.90
56725;DHT22;42608;52.776;6.968;2023-12-14T01:20:24;4.90;99.90
56725;DHT22;42608;52.776;6.968;2023-12-14T01:22:50;4.90;99.90
56725;DHT22;42608;52.776;6.968;2023-12-14T01:25:15;4.80;99.90
56725;DHT22;42608;52.776;6.968;2023-12-14T01:27:41;4.80;99.90
56725;DHT22;42608;52.776;6.968;2023-12-14T01:30:06;4.80;99.90
56725;DHT22;42608;52.776;6.968;2023-12-14T01:32:33;4.90;99.90
56725;DHT22;42608;52.776;6.968;2023-12-14T01:34:58;4.90;99.90
56725;DHT22;42608;52.776;6.968;2023-12-14T01:37:24;4.90;99.90
56725;DHT22;42608;52.776;6.968;2023-12-14T01:39:49;4.80;99.90
56725;DHT22;42608;52.776;6.968;2023-12-14T01:42:15;4.80;99.90
56725;DHT22;42608;52.776;6.968;2023-12-14T01:44:40;4.80;99.90
56725;DHT22;42608;52.776;6.968;2023-12-14T01:47:06;4.90;99.90
56725;DHT22;42608;52.776;6.968;2023-12-14T01:49:32;4.80;99.90
56725;DHT22;42608;52.776;6.968;2023-12-14T01:51:57;4.80;99.90
56725;DHT22;42608;52.776;6.968;2023-12-14T01:54:23;4.80;99.90
56725;DHT22;42608;52.776;6.968;2023-12-14T01:56:48;4.80;99.90
56725;DHT22;42608;52.776;6.968;2023-12-14T01:59:14;4.80;99.90
56725;DHT22;42608;52.776;6.968;2023-12-14T02:01:42;4.80;99.90
56725;DHT22;42608;52.776;6.968;2023-12-14T02:04:07;4.80;99.90
56725;DHT22;42608;52.776;6.968;2023-12-14T02:06:33;4.80;99.90
56725;DHT22;42608;52.776;6.968;2023-12-14T02:08:59;4.80;99.90
56725;DHT22;42608;52.776;6.968;2023-12-14T02:11:24;4.80;99.90
56725;DHT22;42608;52.776;6.968;2023-12-14T02:13:50;4.70;99.90
56725;DHT22;42608;52.776;6.968;2023-12-14T02:16:16;4.70;99.90
56725;DHT22;42608;52.776;6.968;2023-12-14T02:18:41;4.70;99.90
56725;DHT22;42608;52.776;6.968;2023-12-14T02:21:07;4.70;99.90
56725;DHT22;42608;52.776;6.968;2023-12-14T02:23:32;4.70;99.90
56725;DHT22;42608;52.776;6.968;2023-12-14T02:25:59;4.70;99.90
56725;DHT22;42608;52.776;6.968;2023-12-14T02:28:25;4.60;99.90
56725;DHT22;42608;52.776;6.968;2023-12-14T02:30:50;4.70;99.90
56725;DHT22;42608;52.776;6.968;2023-12-14T02:33:16;4.60;99.90
56725;DHT22;42608;52.776;6.968;2023-12-14T02:35:42;4.60;99.90
56725;DHT22;42608;52.776;6.968;2023-12-14T02:38:08;4.70;99.90
56725;DHT22;42608;52.776;6.968;2023-12-14T02:40:33;4.60;99.90
56725;DHT22;42608;52.776;6.968;2023-12-14T02:43:00;4.60;99.90
56725;DHT22;42608;52.776;6.968;2023-12-14T02:45:26;4.60;99.90
56725;DHT22;42608;52.776;6.968;2023-12-14T02:47:52;4.60;99.90
56725;DHT22;42608;52.776;6.968;2023-12-14T02:50:19;4.50;99.90
56725;DHT22;42608;52.776;6.968;2023-12-14T02:52:45;4.60;99.90
56725;DHT22;42608;52.776;6.968;2023-12-14T02:55:10;4.50;99.90
56725;DHT22;42608;52.776;6.968;2023-12-14T02:57:36;4.50;99.90
56725;DHT22;42608;52.776;6.968;2023-12-14T03:00:01;4.50;99.90
56725;DHT22;42608;52.776;6.968;2023-12-14T03:02:27;4.50;99.90
56725;DHT22;42608;52.776;6.968;2023-12-14T03:04:53;4.60;99.90
56725;DHT22;42608;52.776;6.968;2023-12-14T03:07:18;4.50;99.90
56725;DHT22;42608;52.776;6.968;2023-12-14T03:09:44;4.50;99.90
56725;DHT22;42608;52.776;6.968;2023-12-14T03:12:10;4.50;99.90
56725;DHT22;42608;52.776;6.968;2023-12-14T03:14:36;4.50;99.90
56725;DHT22;42608;52.776;6.968;2023-12-14T03:17:01;4.50;99.90
56725;DHT22;42608;52.776;6.968;2023-12-14T03:19:27;4.50;99.90
56725;DHT22;42608;52.776;6.968;2023-12-14T03:21:53;4.60;99.90
56725;DHT22;42608;52.776;6.968;2023-12-14T03:24:19;4.60;99.90
56725;DHT22;42608;52.776;6.968;2023-12-14T03:26:44;4.50;99.90
56725;DHT22;42608;52.776;6.968;2023-12-14T03:29:10;4.50;99.90
56725;DHT22;42608;52.776;6.968;2023-12-14T03:31:35;4.50;99.90
56725;DHT22;42608;52.776;6.968;2023-12-14T03:34:01;4.50;99.90
56725;DHT22;42608;52.776;6.968;2023-12-14T03:36:26;4.50;99.90
56725;DHT22;42608;52.776;6.968;2023-12-14T03:38:53;4.50;99.90
56725;DHT22;42608;52.776;6.968;2023-12-14T03:41:18;4.50;99.90
56725;DHT22;42608;52.776;6.968;2023-12-14T03:43:44;4.50;99.90
56725;DHT22;42608;52.776;6.968;2023-12-14T03:46:09;4.60;99.90
56725;DHT22;42608;52.776;6.968;2023-12-14T03:48:35;4.50;99.90
56725;DHT22;42608;52.776;6.968;2023-12-14T03:51:04;4.50;99.90
56725;DHT22;42608;52.776;6.968;2023-12-14T03:53:30;4.50;99.90
56725;DHT22;42608;52.776;6.968;2023-12-14T03:55:56;4.50;99.90
56725;DHT22;42608;52.776;6.968;2023-12-14T03:58:22;4.50;99.90
56725;DHT22;42608;52.776;6.968;2023-12-14T04:00:47;4.50;99.90
56725;DHT22;42608;52.776;6.968;2023-12-14T04:03:13;4.50;99.90
56725;DHT22;42608;52.776;6.968;2023-12-14T04:05:38;4.50;99.90
56725;DHT22;42608;52.776;6.968;2023-12-14T04:08:04;4.50;99.90
56725;DHT22;42608;52.776;6.968;2023-12-14T04:10:30;4.50;99.90
56725;DHT22;42608;52.776;6.968;2023-12-14T04:12:56;4.50;99.90
56725;DHT22;42608;52.776;6.968;2023-12-14T04:15:21;4.50;99.90
56725;DHT22;42608;52.776;6.968;2023-12-14T04:17:47;4.50;99.90
56725;DHT22;42608;52.776;6.968;2023-12-14T04:20:13;4.60;99.90
56725;DHT22;42608;52.776;6.968;2023-12-14T04:22:41;4.50;99.90
56725;DHT22;42608;52.776;6.968;2023-12-14T04:25:07;4.50;99.90
56725;DHT22;42608;52.776;6.968;2023-12-14T04:27:33;4.50;99.90
56725;DHT22;42608;52.776;6.968;2023-12-14T04:29:58;4.50;99.90
56725;DHT22;42608;52.776;6.968;2023-12-14T04:32:24;4.50;99.90
56725;DHT22;42608;52.776;6.968;2023-12-14T04:34:49;4.40;99.90
56725;DHT22;42608;52.776;6.968;2023-12-14T04:37:15;4.50;99.90
56725;DHT22;42608;52.776;6.968;2023-12-14T04:39:40;4.50;99.90
56725;DHT22;42608;52.776;6.968;2023-12-14T04:42:06;4.50;99.90
56725;DHT22;42608;52.776;6.968;2023-12-14T04:44:32;4.50;99.90
56725;DHT22;42608;52.776;6.968;2023-12-14T04:46:57;4.50;99.90
56725;DHT22;42608;52.776;6.968;2023-12-14T04:49:23;4.40;99.90
56725;DHT22;42608;52.776;6.968;2023-12-14T04:51:48;4.50;99.90
56725;DHT22;42608;52.776;6.968;2023-12-14T04:54:14;4.50;99.90
56725;DHT22;42608;52.776;6.968;2023-12-14T04:56:40;4.50;99.90
56725;DHT22;42608;52.776;6.968;2023-12-14T04:59:07;4.50;99.90
56725;DHT22;42608;52.776;6.968;2023-12-14T05:01:32;4.50;99.90
56725;DHT22;42608;52.776;6.968;2023-12-14T05:03:58;4.50;99.90
56725;DHT22;42608;52.776;6.968;2023-12-14T05:06:23;4.50;99.90
56725;DHT22;42608;52.776;6.968;2023-12-14T05:08:49;4.50;99.90
56725;DHT22;42608;52.776;6.968;2023-12-14T05:11:14;4.50;99.90
56725;DHT22;42608;52.776;6.968;2023-12-14T05:13:40;4.50;99.90
56725;DHT22;42608;52.776;6.968;2023-12-14T05:16:06;4.50;99.90
56725;DHT22;42608;52.776;6.968;2023-12-14T05:18:31;4.50;99.90
56725;DHT22;42608;52.776;6.968;2023-12-14T05:20:57;4.50;99.90
56725;DHT22;42608;52.776;6.968;2023-12-14T05:23:23;4.50;99.90
56725;DHT22;42608;52.776;6.968;2023-12-14T05:25:49;4.40;99.90
56725;DHT22;42608;52.776;6.968;2023-12-14T05:28:15;4.40;99.90
56725;DHT22;42608;52.776;6.968;2023-12-14T05:30:40;4.40;99.90
56725;DHT22;42608;52.776;6.968;2023-12-14T05:33:06;4.40;99.90
56725;DHT22;42608;52.776;6.968;2023-12-14T05:35:32;4.40;99.90
56725;DHT22;42608;52.776;6.968;2023-12-14T05:37:58;4.40;99.90
56725;DHT22;42608;52.776;6.968;2023-12-14T05:40:23;4.40;99.90
56725;DHT22;42608;52.776;6.968;2023-12-14T05:42:49;4.40;99.90
56725;DHT22;42608;52.776;6.968;2023-12-14T05:45:14;4.30;99.90
56725;DHT22;42608;52.776;6.968;2023-12-14T05:47:40;4.30;99.90
56725;DHT22;42608;52.776;6.968;2023-12-14T05:50:07;4.40;99.90
56725;DHT22;42608;52.776;6.968;2023-12-14T05:52:35;4.30;99.90
56725;DHT22;42608;52.776;6.968;2023-12-14T05:55:00;4.40;99.90
56725;DHT22;42608;52.776;6.968;2023-12-14T05:57:26;4.40;99.90
56725;DHT22;42608;52.776;6.968;2023-12-14T05:59:52;4.40;99.90
56725;DHT22;42608;52.776;6.968;2023-12-14T06:02:17;4.40;99.90
56725;DHT22;42608;52.776;6.968;2023-12-14T06:04:43;4.40;99.90
56725;DHT22;42608;52.776;6.968;2023-12-14T06:07:08;4.40;99.90
56725;DHT22;42608;52.776;6.968;2023-12-14T06:09:34;4.40;99.90
56725;DHT22;42608;52.776;6.968;2023-12-14T06:12:00;4.40;99.90
56725;DHT22;42608;52.776;6.968;2023-12-14T06:14:26;4.40;99.90
56725;DHT22;42608;52.776;6.968;2023-12-14T06:16:52;4.50;99.90
56725;DHT22;42608;52.776;6.968;2023-12-14T06:19:17;4.40;99.90
56725;DHT22;42608;52.776;6.968;2023-12-14T06:21:43;4.40;99.90
56725;DHT22;42608;52.776;6.968;2023-12-14T06:24:09;4.40;99.90
56725;DHT22;42608;52.776;6.968;2023-12-14T06:26:34;4.40;99.90
56725;DHT22;42608;52.776;6.968;2023-12-14T06:29:00;4.40;99.90
56725;DHT22;42608;52.776;6.968;2023-12-14T06:31:25;4.40;99.90
56725;DHT22;42608;52.776;6.968;2023-12-14T06:33:51;4.40;99.90
56725;DHT22;42608;52.776;6.968;2023-12-14T06:36:16;4.40;99.90
56725;DHT22;42608;52.776;6.968;2023-12-14T06:38:43;4.40;99.90
56725;DHT22;42608;52.776;6.968;2023-12-14T06:41:08;4.30;99.90
56725;DHT22;42608;52.776;6.968;2023-12-14T06:43:43;4.30;99.90
56725;DHT22;42608;52.776;6.968;2023-12-14T06:46:08;4.30;99.90
56725;DHT22;42608;52.776;6.968;2023-12-14T06:48:34;4.40;99.90
56725;DHT22;42608;52.776;6.968;2023-12-14T06:50:59;4.30;99.90
56725;DHT22;42608;52.776;6.968;2023-12-14T06:53:25;4.30;99.90
56725;DHT22;42608;52.776;6.968;2023-12-14T06:55:50;4.30;99.90
56725;DHT22;42608;52.776;6.968;2023-12-14T06:58:17;4.30;99.90
56725;DHT22;42608;52.776;6.968;2023-12-14T07:00:42;4.30;99.90
56725;DHT22;42608;52.776;6.968;2023-12-14T07:03:08;4.30;99.90
56725;DHT22;42608;52.776;6.968;2023-12-14T07:05:33;4.40;99.90
56725;DHT22;42608;52.776;6.968;2023-12-14T07:07:59;4.30;99.90
56725;DHT22;42608;52.776;6.968;2023-12-14T07:10:25;4.30;99.90
56725;DHT22;42608;52.776;6.968;2023-12-14T07:12:50;4.40;99.90
56725;DHT22;42608;52.776;6.968;2023-12-14T07:15:16;4.40;99.90
56725;DHT22;42608;52.776;6.968;2023-12-14T07:17:41;4.40;99.90
56725;DHT22;42608;52.776;6.968;2023-12-14T07:20:07;4.40;99.90
56725;DHT22;42608;52.776;6.968;2023-12-14T07:22:33;4.40;99.90
56725;DHT22;42608;52.776;6.968;2023-12-14T07:24:58;4.40;99.90
56725;DHT22;42608;52.776;6.968;2023-12-14T07:27:24;4.40;99.90
56725;DHT22;42608;52.776;6.968;2023-12-14T07:29:49;4.40;99.90
56725;DHT22;42608;52.776;6.968;2023-12-14T07:32:15;4.40;99.90
56725;DHT22;42608;52.776;6.968;2023-12-14T07:34:40;4.40;99.90
56725;DHT22;42608;52.776;6.968;2023-12-14T07:37:06;4.40;99.90
56725;DHT22;42608;52.776;6.968;2023-12-14T07:39:32;4.40;99.90
56725;DHT22;42608;52.776;6.968;2023-12-14T07:41:57;4.40;99.90
56725;DHT22;42608;52.776;6.968;2023-12-14T07:44:23;4.40;99.90
56725;DHT22;42608;52.776;6.968;2023-12-14T07:46:50;4.40;99.90
56725;DHT22;42608;52.776;6.968;2023-12-14T07:49:16;4.30;99.90
56725;DHT22;42608;52.776;6.968;2023-12-14T07:51:46;4.40;99.90
56725;DHT22;42608;52.776;6.968;2023-12-14T07:54:11;4.40;99.90
56725;DHT22;42608;52.776;6.968;2023-12-14T07:56:37;4.40;99.90
56725;DHT22;42608;52.776;6.968;2023-12-14T07:59:02;4.40;99.90
56725;DHT22;42608;52.776;6.968;2023-12-14T08:01:32;4.40;99.90
56725;DHT22;42608;52.776;6.968;2023-12-14T08:03:57;4.40;99.90
56725;DHT22;42608;52.776;6.968;2023-12-14T08:06:23;4.40;99.90
56725;DHT22;42608;52.776;6.968;2023-12-14T08:08:48;4.40;99.90
56725;DHT22;42608;52.776;6.968;2023-12-14T08:11:14;4.40;99.90
56725;DHT22;42608;52.776;6.968;2023-12-14T08:13:40;4.40;99.90
56725;DHT22;42608;52.776;6.968;2023-12-14T08:16:06;4.40;99.90
56725;DHT22;42608;52.776;6.968;2023-12-14T08:18:32;4.40;99.90
56725;DHT22;42608;52.776;6.968;2023-12-14T08:20:57;4.40;99.90
56725;DHT22;42608;52.776;6.968;2023-12-14T08:23:23;4.40;99.90
56725;DHT22;42608;52.776;6.968;2023-12-14T08:25:50;4.40;99.90
56725;DHT22;42608;52.776;6.968;2023-12-14T08:28:16;4.40;99.90
56725;DHT22;42608;52.776;6.968;2023-12-14T08:30:41;4.50;99.90
56725;DHT22;42608;52.776;6.968;2023-12-14T08:33:07;4.50;99.90
56725;DHT22;42608;52.776;6.968;2023-12-14T08:35:32;4.50;99.90
56725;DHT22;42608;52.776;6.968;2023-12-14T08:37:58;4.50;99.90
56725;DHT22;42608;52.776;6.968;2023-12-14T08:40:23;4.50;99.90
56725;DHT22;42608;52.776;6.968;2023-12-14T08:42:49;4.50;99.90
56725;DHT22;42608;52.776;6.968;2023-12-14T08:45:15;4.50;99.90
56725;DHT22;42608;52.776;6.968;2023-12-14T08:47:40;4.50;99.90
56725;DHT22;42608;52.776;6.968;2023-12-14T08:50:06;4.60;99.90
56725;DHT22;42608;52.776;6.968;2023-12-14T08:52:33;4.60;99.90
56725;DHT22;42608;52.776;6.968;2023-12-14T08:54:58;4.60;99.90
56725;DHT22;42608;52.776;6.968;2023-12-14T08:57:24;4.60;99.90
56725;DHT22;42608;52.776;6.968;2023-12-14T08:59:50;4.60;99.90
56725;DHT22;42608;52.776;6.968;2023-12-14T09:02:15;4.60;99.90
56725;DHT22;42608;52.776;6.968;2023-12-14T09:04:41;4.60;99.90
56725;DHT22;42608;52.776;6.968;2023-12-14T09:07:06;4.60;99.90
56725;DHT22;42608;52.776;6.968;2023-12-14T09:09:32;4.60;99.90
56725;DHT22;42608;52.776;6.968;2023-12-14T09:11:57;4.60;99.90
56725;DHT22;42608;52.776;6.968;2023-12-14T09:14:23;4.60;99.90
56725;DHT22;42608;52.776;6.968;2023-12-14T09:16:49;4.60;99.90
56725;DHT22;42608;52.776;6.968;2023-12-14T09:19:14;4.60;99.90
56725;DHT22;42608;52.776;6.968;2023-12-14T09:21:40;4.60;99.90
56725;DHT22;42608;52.776;6.968;2023-12-14T09:24:05;4.60;99.90
56725;DHT22;42608;52.776;6.968;2023-12-14T09:26:31;4.70;99.90
56725;DHT22;42608;52.776;6.968;2023-12-14T09:28:56;4.70;99.90
56725;DHT22;42608;52.776;6.968;2023-12-14T09:31:22;4.70;99.90
56725;DHT22;42608;52.776;6.968;2023-12-14T09:33:47;4.70;99.90
56725;DHT22;42608;52.776;6.968;2023-12-14T09:36:13;4.70;99.90
56725;DHT22;42608;52.776;6.968;2023-12-14T09:38:39;4.70;99.90
56725;DHT22;42608;52.776;6.968;2023-12-14T09:41:04;4.70;99.90
56725;DHT22;42608;52.776;6.968;2023-12-14T09:43:32;4.60;99.90
56725;DHT22;42608;52.776;6.968;2023-12-14T09:45:58;4.70;99.90
56725;DHT22;42608;52.776;6.968;2023-12-14T09:48:24;4.70;99.90
56725;DHT22;42608;52.776;6.968;2023-12-14T09:50:49;4.70;99.90
56725;DHT22;42608;52.776;6.968;2023-12-14T09:53:15;4.70;99.90
56725;DHT22;42608;52.776;6.968;2023-12-14T09:55:41;4.70;99.90
56725;DHT22;42608;52.776;6.968;2023-12-14T09:58:06;4.70;99.90
56725;DHT22;42608;52.776;6.968;2023-12-14T10:00:36;4.70;99.90
56725;DHT22;42608;52.776;6.968;2023-12-14T10:05:42;4.70;99.90
56725;DHT22;42608;52.776;6.968;2023-12-14T10:08:08;4.80;99.90
56725;DHT22;42608;52.776;6.968;2023-12-14T10:10:33;4.80;99.90
56725;DHT22;42608;52.776;6.968;2023-12-14T10:12:59;4.80;99.90
56725;DHT22;42608;52.776;6.968;2023-12-14T10:15:26;4.80;99.90
56725;DHT22;42608;52.776;6.968;2023-12-14T10:17:52;4.80;99.90
56725;DHT22;42608;52.776;6.968;2023-12-14T10:20:22;4.80;99.90
56725;DHT22;42608;52.776;6.968;2023-12-14T10:22:49;4.80;99.90
56725;DHT22;42608;52.776;6.968;2023-12-14T10:25:15;4.80;99.90
56725;DHT22;42608;52.776;6.968;2023-12-14T10:27:40;4.80;99.90
56725;DHT22;42608;52.776;6.968;2023-12-14T10:30:06;4.80;99.90
56725;DHT22;42608;52.776;6.968;2023-12-14T10:32:32;4.80;99.90
56725;DHT22;42608;52.776;6.968;2023-12-14T10:34:58;4.90;99.90
56725;DHT22;42608;52.776;6.968;2023-12-14T10:37:23;4.90;99.90
56725;DHT22;42608;52.776;6.968;2023-12-14T10:39:50;4.80;99.90
56725;DHT22;42608;52.776;6.968;2023-12-14T10:42:18;4.90;99.90
56725;DHT22;42608;52.776;6.968;2023-12-14T10:44:44;4.80;99.90
56725;DHT22;42608;52.776;6.968;2023-12-14T10:47:10;4.90;99.90
56725;DHT22;42608;52.776;6.968;2023-12-14T10:49:36;4.90;99.90
56725;DHT22;42608;52.776;6.968;2023-12-14T10:52:01;4.90;99.90
56725;DHT22;42608;52.776;6.968;2023-12-14T10:54:28;5.00;99.90
56725;DHT22;42608;52.776;6.968;2023-12-14T10:56:56;5.00;99.90
56725;DHT22;42608;52.776;6.968;2023-12-14T10:59:23;5.00;99.90
56725;DHT22;42608;52.776;6.968;2023-12-14T11:01:52;5.00;99.90
56725;DHT22;42608;52.776;6.968;2023-12-14T11:04:18;5.00;99.90
56725;DHT22;42608;52.776;6.968;2023-12-14T11:06:46;5.00;99.90
56725;DHT22;42608;52.776;6.968;2023-12-14T11:09:13;5.00;99.90
56725;DHT22;42608;52.776;6.968;2023-12-14T11:14:07;5.00;99.90
56725;DHT22;42608;52.776;6.968;2023-12-14T11:16:33;5.00;99.90
56725;DHT22;42608;52.776;6.968;2023-12-14T11:21:44;5.10;99.90
56725;DHT22;42608;52.776;6.968;2023-12-14T11:24:10;5.10;99.90
56725;DHT22;42608;52.776;6.968;2023-12-14T11:26:36;5.10;99.90
56725;DHT22;42608;52.776;6.968;2023-12-14T11:29:01;5.10;99.90
56725;DHT22;42608;52.776;6.968;2023-12-14T11:31:27;5.10;99.90
56725;DHT22;42608;52.776;6.968;2023-12-14T11:33:54;5.10;99.90
56725;DHT22;42608;52.776;6.968;2023-12-14T11:36:21;5.10;99.90
56725;DHT22;42608;52.776;6.968;2023-12-14T11:38:49;5.10;99.90
56725;DHT22;42608;52.776;6.968;2023-12-14T11:41:16;5.20;99.90
56725;DHT22;42608;52.776;6.968;2023-12-14T11:43:42;5.20;99.90
56725;DHT22;42608;52.776;6.968;2023-12-14T11:46:08;5.20;99.90
56725;DHT22;42608;52.776;6.968;2023-12-14T11:48:34;5.20;99.90
56725;DHT22;42608;52.776;6.968;2023-12-14T11:50:59;5.20;99.90
56725;DHT22;42608;52.776;6.968;2023-12-14T11:53:26;5.20;99.90
56725;DHT22;42608;52.776;6.968;2023-12-14T11:55:51;5.20;99.90
56725;DHT22;42608;52.776;6.968;2023-12-14T11:58:18;5.20;99.90
56725;DHT22;42608;52.776;6.968;2023-12-14T12:00:43;5.20;99.90
56725;DHT22;42608;52.776;6.968;2023-12-14T12:03:12;5.30;99.90
56725;DHT22;42608;52.776;6.968;2023-12-14T12:05:39;5.20;99.90
56725;DHT22;42608;52.776;6.968;2023-12-14T12:08:05;5.20;99.90
56725;DHT22;42608;52.776;6.968;2023-12-14T12:10:31;5.30;99.90
56725;DHT22;42608;52.776;6.968;2023-12-14T12:13:01;5.30;99.90
56725;DHT22;42608;52.776;6.968;2023-12-14T12:15:26;5.20;99.90
56725;DHT22;42608;52.776;6.968;2023-12-14T12:17:52;5.30;99.90
56725;DHT22;42608;52.776;6.968;2023-12-14T12:20:18;5.30;99.90
56725;DHT22;42608;52.776;6.968;2023-12-14T12:22:44;5.30;99.90
56725;DHT22;42608;52.776;6.968;2023-12-14T12:25:09;5.30;99.90
56725;DHT22;42608;52.776;6.968;2023-12-14T12:27:35;5.30;99.90
56725;DHT22;42608;52.776;6.968;2023-12-14T12:30:00;5.30;99.90
56725;DHT22;42608;52.776;6.968;2023-12-14T12:32:26;5.30;99.90
56725;DHT22;42608;52.776;6.968;2023-12-14T12:34:51;5.40;99.90
56725;DHT22;42608;52.776;6.968;2023-12-14T12:37:18;5.30;99.90
56725;DHT22;42608;52.776;6.968;2023-12-14T12:39:43;5.30;99.90
56725;DHT22;42608;52.776;6.968;2023-12-14T12:42:09;5.40;99.90
56725;DHT22;42608;52.776;6.968;2023-12-14T12:44:34;5.30;99.90
56725;DHT22;42608;52.776;6.968;2023-12-14T12:47:00;5.40;99.90
56725;DHT22;42608;52.776;6.968;2023-12-14T12:49:25;5.30;99.90
56725;DHT22;42608;52.776;6.968;2023-12-14T12:51:51;5.30;99.90
56725;DHT22;42608;52.776;6.968;2023-12-14T12:54:17;5.40;99.90
56725;DHT22;42608;52.776;6.968;2023-12-14T12:56:42;5.30;99.90
56725;DHT22;42608;52.776;6.968;2023-12-14T12:59:08;5.30;99.90
56725;DHT22;42608;52.776;6.968;2023-12-14T13:01:34;5.40;99.90
56725;DHT22;42608;52.776;6.968;2023-12-14T13:04:00;5.40;99.90
56725;DHT22;42608;52.776;6.968;2023-12-14T13:06:26;5.40;99.90
56725;DHT22;42608;52.776;6.968;2023-12-14T13:08:52;5.40;99.90
56725;DHT22;42608;52.776;6.968;2023-12-14T13:11:18;5.40;99.90
56725;DHT22;42608;52.776;6.968;2023-12-14T13:13:43;5.40;99.90
56725;DHT22;42608;52.776;6.968;2023-12-14T13:16:10;5.40;99.90
56725;DHT22;42608;52.776;6.968;2023-12-14T13:18:36;5.40;99.90
56725;DHT22;42608;52.776;6.968;2023-12-14T13:21:01;5.40;99.90
56725;DHT22;42608;52.776;6.968;2023-12-14T13:23:27;5.40;99.90
56725;DHT22;42608;52.776;6.968;2023-12-14T13:25:52;5.40;99.90
56725;DHT22;42608;52.776;6.968;2023-12-14T13:28:18;5.40;99.90
56725;DHT22;42608;52.776;6.968;2023-12-14T13:30:44;5.40;99.90
56725;DHT22;42608;52.776;6.968;2023-12-14T13:33:09;5.40;99.90
56725;DHT22;42608;52.776;6.968;2023-12-14T13:35:37;5.40;99.90
56725;DHT22;42608;52.776;6.968;2023-12-14T13:38:03;5.40;99.90
56725;DHT22;42608;52.776;6.968;2023-12-14T13:40:28;5.40;99.90
56725;DHT22;42608;52.776;6.968;2023-12-14T13:42:54;5.40;99.90
56725;DHT22;42608;52.776;6.968;2023-12-14T13:45:20;5.40;99.90
56725;DHT22;42608;52.776;6.968;2023-12-14T13:47:45;5.40;99.90
56725;DHT22;42608;52.776;6.968;2023-12-14T13:50:12;5.40;99.90
56725;DHT22;42608;52.776;6.968;2023-12-14T13:52:37;5.40;99.90
56725;DHT22;42608;52.776;6.968;2023-12-14T13:55:03;5.40;99.90
56725;DHT22;42608;52.776;6.968;2023-12-14T13:57:28;5.40;99.90
56725;DHT22;42608;52.776;6.968;2023-12-14T13:59:54;5.40;99.90
56725;DHT22;42608;52.776;6.968;2023-12-14T14:02:20;5.40;99.90
56725;DHT22;42608;52.776;6.968;2023-12-14T14:04:45;5.40;99.90
56725;DHT22;42608;52.776;6.968;2023-12-14T14:07:11;5.40;99.90
56725;DHT22;42608;52.776;6.968;2023-12-14T14:09:36;5.40;99.90
56725;DHT22;42608;52.776;6.968;2023-12-14T14:12:02;5.40;99.90
56725;DHT22;42608;52.776;6.968;2023-12-14T14:14:29;5.40;99.90
56725;DHT22;42608;52.776;6.968;2023-12-14T14:16:54;5.40;99.90
56725;DHT22;42608;52.776;6.968;2023-12-14T14:19:20;5.40;99.90
56725;DHT22;42608;52.776;6.968;2023-12-14T14:21:46;5.40;99.90
56725;DHT22;42608;52.776;6.968;2023-12-14T14:24:11;5.40;99.90
56725;DHT22;42608;52.776;6.968;2023-12-14T14:26:37;5.40;99.90
56725;DHT22;42608;52.776;6.968;2023-12-14T14:29:02;5.30;99.90
56725;DHT22;42608;52.776;6.968;2023-12-14T14:31:29;5.30;99.90
56725;DHT22;42608;52.776;6.968;2023-12-14T14:34:00;5.40;99.90
56725;DHT22;42608;52.776;6.968;2023-12-14T14:36:26;5.30;99.90
56725;DHT22;42608;52.776;6.968;2023-12-14T14:38:51;5.30;99.90
56725;DHT22;42608;52.776;6.968;2023-12-14T14:41:20;5.30;99.90
56725;DHT22;42608;52.776;6.968;2023-12-14T14:43:45;5.30;99.90
56725;DHT22;42608;52.776;6.968;2023-12-14T14:46:11;5.30;99.90
56725;DHT22;42608;52.776;6.968;2023-12-14T14:48:36;5.30;99.90
56725;DHT22;42608;52.776;6.968;2023-12-14T14:51:03;5.30;99.90
56725;DHT22;42608;52.776;6.968;2023-12-14T14:53:28;5.30;99.90
56725;DHT22;42608;52.776;6.968;2023-12-14T14:55:55;5.20;99.90
56725;DHT22;42608;52.776;6.968;2023-12-14T14:58:21;5.20;99.90
56725;DHT22;42608;52.776;6.968;2023-12-14T15:00:47;5.20;99.90
56725;DHT22;42608;52.776;6.968;2023-12-14T15:03:13;5.20;99.90
56725;DHT22;42608;52.776;6.968;2023-12-14T15:05:39;5.20;99.90
56725;DHT22;42608;52.776;6.968;2023-12-14T15:08:05;5.20;99.90
56725;DHT22;42608;52.776;6.968;2023-12-14T15:10:32;5.10;99.90
56725;DHT22;42608;52.776;6.968;2023-12-14T15:12:57;5.10;99.90
56725;DHT22;42608;52.776;6.968;2023-12-14T15:15:23;5.10;99.90
56725;DHT22;42608;52.776;6.968;2023-12-14T15:17:49;5.10;99.90
56725;DHT22;42608;52.776;6.968;2023-12-14T15:20:14;5.10;99.90
56725;DHT22;42608;52.776;6.968;2023-12-14T15:22:40;5.10;99.90
56725;DHT22;42608;52.776;6.968;2023-12-14T15:25:05;5.10;99.90
56725;DHT22;42608;52.776;6.968;2023-12-14T15:27:31;5.10;99.90
56725;DHT22;42608;52.776;6.968;2023-12-14T15:29:58;5.10;99.90
56725;DHT22;42608;52.776;6.968;2023-12-14T15:32:24;5.00;99.90
56725;DHT22;42608;52.776;6.968;2023-12-14T15:34:49;5.00;99.90
56725;DHT22;42608;52.776;6.968;2023-12-14T15:37:15;5.00;99.90
56725;DHT22;42608;52.776;6.968;2023-12-14T15:39:40;5.00;99.90
56725;DHT22;42608;52.776;6.968;2023-12-14T15:42:06;5.00;99.90